Pagrindinis puslapis
METAR-TAF:

METAR-TAF

Oro uostai :

Masjed-Soleyman, Iranas

platuma: 31-59N, ilguma: 049-16E, Aukštis: 372 m

Dabartinis oras

Ataskaita buvo paskelbta 39 minutes, ne 10:00 UTC
Vėjas 4 kt iš Vakarų
Temperatūra 37°C
Drėgmė 14%
Slėgis 1015 hPa
Matomumas 10 km arba daugiau
nėra debesų žemiau 1500 m ir nėra kamuolinių lietaus debesų

METAR: OIAI 141000Z 26004KT CAVOK 37/05 Q1015

Laikas: 14:09 (10:39 UTC)


TAF: trūkstamas

Orai ataskaitas ir orų prognozės (METAR, TAF).

turimą stotys yra geltonos ir raudonos taškus žemėlapyje.

Perkelti pele per norėdami pamatyti stoties vardą.

Tada spustelėkite, norėdami matyti oro stebėjimo ir prognozės.

Norėdami pakeisti žemėlapį: spustelėkite ant žalios mygtukų su juodo kryžiaus žemyn,; žalią mygtuką su brūkšneliu, jei norite nutolinti; arba žalių rodyklių gretimoms žemėlapius.


METAR-TAF: